Wahpeton, MN

12:21 AM CDT on August 20, 2017 (GMT -0500)
Stern

Weather History for KBWP - January, 2013

Change the Weather History Date:

Thursday, January 31, 2013

  Actual Average (KFFM) Record (KFFM)
Temperature  
Mean Temperature -14 °F -  
Max Temperature -4 °F 19 °F 39 °F (1987)
Min Temperature -25 °F 0 °F -30 °F (1982)
Degree Days  
Heating Degree Days 80    
Moisture  
Dew Point -19 °F    
Average Humidity 71    
Maximum Humidity 84    
Minimum Humidity 64    
Precipitation  
Precipitation 0.00 in - - ()
Sea Level Pressure  
Sea Level Pressure 30.18 in    
Wind  
Wind Speed 17 mph (NW)    
Max Wind Speed 23 mph    
Max Gust Speed 32 mph    
Visibility 7 miles    
Events      
Averages and records for this station are not official NWS values.
T = Trace of Precipitation, MM = Missing Value Source: NWS Daily Summary

Daily Weather History Graph

Daily Weather History Graph

Search for Another Location

Airport or City:

Trip Planner

Search our weather history database for the weather conditions in past years. The results will help you decide how hot, cold, wet, or windy it might be!

Date:

Astronomy

Jan. 31, 2013 Rise Set
Actual Time 7:50 AM CST 5:30 PM CST
Civil Twilight 7:18 AM CST 6:02 PM CST
Nautical Twilight 6:42 AM CST 6:38 PM CST
Astronomical Twilight 6:06 AM CST 7:13 PM CST
Moon 10:55 PM CST (1/31) 9:31 AM CST (1/31)
Length of Visible Light 10h 44m
Length of Day
9h 40m
Waning Gibbous, 79% of the Moon is Illuminated
Jan 31
Waning Gibbous
Feb 3
Last Quarter
Feb 10
New
Feb 17
First Quarter
Feb 25
Full

Hourly Weather History & Observations

Time (CST) Temp. Windchill Dew Point Humidity Pressure Visibility Wind Dir Wind Speed Gust Speed Precip Events Conditions
12:15 AM -4.0 °F -25.8 °F -9.4 °F 78% 29.93 in 3.0 mi NW 17.3 mph - N/A   Overcast
12:35 AM -4.0 °F -26.4 °F -9.4 °F 78% 29.93 in 4.0 mi NW 18.4 mph - N/A   Overcast
12:55 AM -5.8 °F -29.9 °F -9.4 °F 84% 29.93 in 3.0 mi NNW 20.7 mph 26.5 mph N/A   Overcast
1:15 AM -5.8 °F -29.4 °F -13.0 °F 71% 29.94 in 4.0 mi NNW 19.6 mph 25.3 mph N/A   Overcast
1:35 AM -7.6 °F -30.5 °F -14.8 °F 71% 29.95 in 5.0 mi NW 17.3 mph 23.0 mph N/A   Mostly Cloudy
1:55 AM -9.4 °F -32.1 °F -16.6 °F 71% 29.95 in 10.0 mi NW 16.1 mph - N/A   Clear
2:15 AM -9.4 °F -30.6 °F -16.6 °F 71% 29.96 in 10.0 mi NW 13.8 mph - N/A   Clear
2:35 AM -11.2 °F -34.4 °F -18.4 °F 70% 29.97 in 10.0 mi NW 16.1 mph - N/A   Clear
2:55 AM -11.2 °F -34.4 °F -18.4 °F 70% 29.97 in 10.0 mi NW 16.1 mph - N/A   Scattered Clouds
3:15 AM -9.4 °F -31.4 °F -16.6 °F 71% 29.98 in 10.0 mi NW 15.0 mph - N/A   Mostly Cloudy
3:35 AM -9.4 °F -32.1 °F -16.6 °F 71% 29.98 in 10.0 mi NW 16.1 mph - N/A   Overcast
3:55 AM -11.2 °F -35.8 °F -18.4 °F 70% 29.99 in 5.0 mi NW 18.4 mph - N/A   Overcast
4:15 AM -11.2 °F -35.8 °F -18.4 °F 70% 29.99 in 7.0 mi NW 18.4 mph - N/A   Overcast
4:35 AM -9.4 °F -32.8 °F -16.6 °F 71% 30.01 in 5.0 mi NW 17.3 mph 26.5 mph N/A   Overcast
4:55 AM -9.4 °F -33.5 °F -16.6 °F 71% 30.02 in 5.0 mi NW 18.4 mph 24.2 mph N/A   Overcast
5:15 AM -11.2 °F -37.0 °F -18.4 °F 70% 30.02 in 5.0 mi NW 20.7 mph 25.3 mph N/A   Overcast
5:35 AM -11.2 °F -36.4 °F -18.4 °F 70% 30.03 in 4.0 mi NW 19.6 mph - N/A   Overcast
6:15 AM -11.2 °F -37.0 °F -16.6 °F 77% 30.05 in 1.8 mi NW 20.7 mph 26.5 mph N/A   Overcast
6:35 AM -11.2 °F -37.6 °F -16.6 °F 77% 30.06 in 2.0 mi NW 21.9 mph - N/A   Overcast
6:55 AM -9.4 °F -34.7 °F -16.6 °F 71% 30.08 in 2.5 mi NW 20.7 mph - N/A   Overcast
7:15 AM -9.4 °F -34.7 °F -16.6 °F 71% 30.09 in 2.5 mi NW 20.7 mph - N/A   Overcast
7:55 AM -9.4 °F -35.2 °F -16.6 °F 71% 30.11 in 1.5 mi NW 21.9 mph 26.5 mph N/A   Overcast
8:15 AM -9.4 °F -34.7 °F -14.8 °F 77% 30.12 in 1.2 mi NW 20.7 mph - N/A   Overcast
8:35 AM -9.4 °F -34.1 °F -14.8 °F 77% 30.14 in 1.0 mi NW 19.6 mph 25.3 mph N/A   Overcast
8:55 AM -9.4 °F -35.2 °F -14.8 °F 77% 30.15 in 1.5 mi NW 21.9 mph 25.3 mph N/A   Overcast
9:15 AM -9.4 °F -35.2 °F -14.8 °F 77% 30.16 in 1.2 mi NW 21.9 mph 26.5 mph N/A   Overcast
9:35 AM -9.4 °F -35.2 °F -14.8 °F 77% 30.17 in 1.2 mi NNW 21.9 mph 26.5 mph N/A   Overcast
9:55 AM -9.4 °F -34.7 °F -16.6 °F 71% 30.18 in 1.0 mi NW 20.7 mph 31.1 mph N/A   Overcast
10:15 AM -9.4 °F -35.8 °F -14.8 °F 77% 30.19 in 1.2 mi NNW 23.0 mph 29.9 mph N/A   Overcast
10:35 AM -7.6 °F -31.1 °F -16.6 °F 65% 30.20 in - NNW 18.4 mph 32.2 mph N/A   Overcast
10:55 AM -7.6 °F -32.3 °F -16.6 °F 65% 30.22 in - NNW 20.7 mph 29.9 mph N/A   Overcast
11:15 AM -7.6 °F -31.7 °F -16.6 °F 65% 30.22 in - NNW 19.6 mph 26.5 mph N/A   Overcast
11:35 AM -7.6 °F -32.9 °F -14.8 °F 71% 30.23 in - NNW 21.9 mph 28.8 mph N/A   Overcast
11:55 AM -7.6 °F -32.9 °F -14.8 °F 71% 30.23 in - NW 21.9 mph - N/A   Overcast
12:15 PM -7.6 °F -32.3 °F -14.8 °F 71% 30.23 in - NNW 20.7 mph 25.3 mph N/A   Overcast
12:35 PM -5.8 °F -30.5 °F -14.8 °F 65% 30.23 in - NW 21.9 mph 26.5 mph N/A   Overcast
12:55 PM -5.8 °F -29.9 °F -13.0 °F 71% 30.24 in - NW 20.7 mph 25.3 mph N/A   Overcast
1:15 PM -5.8 °F -28.2 °F -13.0 °F 71% 30.25 in - NNW 17.3 mph - N/A   Overcast
1:35 PM -5.8 °F -28.8 °F -13.0 °F 71% 30.25 in - NW 18.4 mph - N/A   Overcast
1:55 PM -5.8 °F -29.9 °F -13.0 °F 71% 30.25 in - NW 20.7 mph - N/A   Overcast
2:15 PM -5.8 °F -29.9 °F -13.0 °F 71% 30.25 in - NW 20.7 mph - N/A   Overcast
2:35 PM -5.8 °F -29.4 °F -13.0 °F 71% 30.26 in - NW 19.6 mph 24.2 mph N/A   Overcast
2:55 PM -5.8 °F -28.2 °F -13.0 °F 71% 30.26 in - NW 17.3 mph - N/A   Overcast
3:15 PM -5.8 °F -28.2 °F -14.8 °F 65% 30.27 in - NW 17.3 mph - N/A   Mostly Cloudy
3:35 PM -5.8 °F -27.5 °F -14.8 °F 65% 30.27 in - NW 16.1 mph - N/A   Unknown
3:55 PM -5.8 °F -26.8 °F -14.8 °F 65% 30.28 in - NW 15.0 mph - N/A   Clear
4:15 PM -7.6 °F -29.1 °F -16.6 °F 65% 30.28 in - NW 15.0 mph - N/A   Clear
4:35 PM -7.6 °F -28.3 °F -16.6 °F 65% 30.29 in 10.0 mi WNW 13.8 mph - N/A   Clear
4:55 PM -9.4 °F -29.8 °F -16.6 °F 71% 30.29 in 10.0 mi NW 12.7 mph - N/A   Clear
5:15 PM -9.4 °F -29.8 °F -18.4 °F 65% 30.29 in 10.0 mi NW 12.7 mph - N/A   Clear
5:35 PM -11.2 °F -30.1 °F -18.4 °F 70% 30.30 in 10.0 mi NW 10.4 mph - N/A   Clear
5:55 PM -13.0 °F -33.4 °F -20.2 °F 70% 30.30 in 10.0 mi NW 11.5 mph - N/A   Clear
6:15 PM -13.0 °F -32.4 °F -22.0 °F 64% 30.31 in 10.0 mi WNW 10.4 mph - N/A   Clear
6:35 PM -13.0 °F -32.4 °F -22.0 °F 64% 30.31 in 10.0 mi NW 10.4 mph - N/A   Clear
6:55 PM -14.8 °F -34.6 °F -22.0 °F 70% 30.30 in 10.0 mi WNW 10.4 mph - N/A   Clear
7:15 PM -14.8 °F -32.2 °F -22.0 °F 70% 30.31 in 10.0 mi WNW 8.1 mph - N/A   Clear
7:35 PM -18.4 °F -36.6 °F -25.6 °F 70% 30.31 in 10.0 mi West 8.1 mph - N/A   Clear
7:55 PM -20.2 °F -41.3 °F -27.4 °F 69% 30.31 in 10.0 mi West 10.4 mph - N/A   Clear
8:15 PM -22.0 °F -42.3 °F -27.4 °F 76% 30.32 in 10.0 mi WNW 9.2 mph - N/A   Clear
8:35 PM -22.0 °F -41.0 °F -27.4 °F 76% 30.32 in 10.0 mi WNW 8.1 mph - N/A   Clear
8:55 PM -23.8 °F -45.8 °F -29.2 °F 76% 30.32 in 10.0 mi WNW 10.4 mph - N/A   Clear
9:15 PM -22.0 °F -42.3 °F -27.4 °F 76% 30.32 in 10.0 mi WNW 9.2 mph - N/A   Clear
9:35 PM -23.8 °F -44.5 °F -29.2 °F 76% 30.32 in 10.0 mi West 9.2 mph - N/A   Clear
10:15 PM -25.6 °F -46.8 °F -31.0 °F 76% 30.32 in 10.0 mi West 9.2 mph - N/A   Clear
10:35 PM -25.6 °F -41.9 °F -31.0 °F 76% 30.31 in 10.0 mi West 5.8 mph - N/A   Clear
10:55 PM -25.6 °F -41.9 °F -31.0 °F 76% 30.31 in 10.0 mi West 5.8 mph - N/A   Clear
11:15 PM -25.6 °F -39.8 °F -32.8 °F 69% 30.30 in 10.0 mi WSW 4.6 mph - N/A   Clear
11:35 PM -23.8 °F -39.8 °F -31.0 °F 69% 30.30 in 10.0 mi West 5.8 mph - N/A   Clear
11:55 PM -25.6 °F -41.9 °F -32.8 °F 69% 30.30 in 10.0 mi West 5.8 mph - N/A   Clear